Time;durP1;ratioP1;P1;durP2;ratioP2;P2;SDS_P1;SDS_P2;PMS_P1;PMS_P2;Temp;Humidity;BMP_temperature;BMP_pressure;BME280_temperature;BME280_humidity;BME280_pressure;Samples;Min_cycle;Max_cycle;Signal;HPM_P1;HPM_P2
2023/09/26 00:01:34;;;;;;;2.50;2.30;;;;;;;14.38;75.18;101348.47;5048263;28;20206;-81
2023/09/26 00:04:01;;;;;;;3.00;2.40;;;;;;;14.36;75.14;101345.00;5048418;28;20324;-81
2023/09/26 00:06:28;;;;;;;2.70;2.30;;;;;;;14.35;75.15;101347.66;5043385;28;20260;-81
2023/09/26 00:08:54;;;;;;;2.30;2.10;;;;;;;14.29;75.27;101340.78;5047457;28;20234;-81
2023/09/26 00:11:21;;;;;;;2.50;2.30;;;;;;;14.22;75.31;101337.41;5056915;28;20209;-80
2023/09/26 00:13:50;;;;;;;2.27;2.13;;;;;;;14.09;75.34;101335.91;5051535;28;20202;-81
2023/09/26 00:16:16;;;;;;;2.50;2.30;;;;;;;14.10;75.19;101333.25;5039946;28;20209;-82
2023/09/26 00:18:43;;;;;;;2.43;2.20;;;;;;;14.14;76.14;101315.69;5046920;28;20720;-81
2023/09/26 00:21:10;;;;;;;2.20;2.00;;;;;;;14.07;76.81;101300.94;5055768;28;20209;-80
2023/09/26 00:23:37;;;;;;;2.57;2.40;;;;;;;14.07;77.01;101287.81;5045830;28;20315;-82
2023/09/26 00:26:04;;;;;;;2.47;2.23;;;;;;;14.07;77.31;101267.69;5054312;28;20202;-82
2023/09/26 00:28:31;;;;;;;3.77;2.30;;;;;;;14.08;77.75;101271.19;5053527;28;20924;-80
2023/09/26 00:31:04;;;;;;;2.50;2.30;;;;;;;14.04;76.82;101273.00;5053287;28;20209;-81
2023/09/26 00:33:30;;;;;;;3.47;2.30;;;;;;;13.98;76.19;101293.25;5053566;28;20649;-81
2023/09/26 00:35:56;;;;;;;4.03;2.87;;;;;;;13.94;76.29;101288.97;5053166;28;20664;-81
2023/09/26 00:38:22;;;;;;;2.57;2.00;;;;;;;13.85;76.85;101280.34;5042008;28;20209;-82
2023/09/26 00:40:49;;;;;;;2.20;2.00;;;;;;;13.80;77.59;101274.34;5052641;28;20208;-82
2023/09/26 00:43:21;;;;;;;2.87;2.27;;;;;;;13.82;77.38;101263.81;5039237;28;20676;-81
2023/09/26 00:45:52;;;;;;;2.73;2.53;;;;;;;13.75;77.56;101254.34;5051679;28;20205;-82
2023/09/26 00:48:21;;;;;;;4.90;2.30;;;;;;;13.76;78.11;101229.84;5056003;28;20212;-81
2023/09/26 00:50:48;;;;;;;2.23;2.13;;;;;;;13.75;78.13;101226.31;5048444;28;20201;-81
2023/09/26 00:53:15;;;;;;;2.43;2.33;;;;;;;13.73;78.07;101235.13;5052692;28;20203;-80
2023/09/26 00:55:43;;;;;;;2.50;2.30;;;;;;;13.70;78.18;101229.03;5049979;28;20212;-81
2023/09/26 00:58:11;;;;;;;2.30;2.10;;;;;;;13.73;78.29;101224.63;5046936;28;20272;-80
2023/09/26 01:00:38;;;;;;;2.60;2.13;;;;;;;13.79;78.32;101219.25;5051169;28;20197;-82
2023/09/26 01:03:05;;;;;;;2.67;2.47;;;;;;;13.82;79.08;101212.19;5054884;28;20304;-81
2023/09/26 01:05:33;;;;;;;2.60;1.93;;;;;;;13.86;79.38;101198.13;5051298;28;20593;-82
2023/09/26 01:07:59;;;;;;;2.37;2.27;;;;;;;13.93;79.15;101192.75;5047077;28;20206;-81
2023/09/26 01:10:26;;;;;;;2.00;1.90;;;;;;;13.92;79.93;101189.25;5052090;28;20221;-81
2023/09/26 01:12:53;;;;;;;2.47;2.30;;;;;;;13.95;80.08;101178.69;5052401;28;20216;-81
2023/09/26 01:15:31;;;;;;;2.57;2.40;;;;;;;14.01;80.32;101170.69;5052173;28;20531;-81
2023/09/26 01:17:58;;;;;;;2.47;2.17;;;;;;;14.06;80.32;101162.72;5055091;28;20435;-81
2023/09/26 01:20:24;;;;;;;3.93;2.30;;;;;;;14.07;80.38;101153.94;5053525;28;20222;-82
2023/09/26 01:22:53;;;;;;;2.63;2.43;;;;;;;14.12;80.12;101156.47;5055696;28;20204;-82
2023/09/26 01:25:21;;;;;;;6.33;2.60;;;;;;;14.17;79.89;101157.22;5048739;28;20226;-81
2023/09/26 01:27:47;;;;;;;2.47;2.27;;;;;;;14.13;79.47;101160.81;5052403;28;20571;-81
2023/09/26 01:30:14;;;;;;;2.30;2.17;;;;;;;14.14;79.06;101165.19;5070263;28;20206;-80
2023/09/26 01:32:41;;;;;;;2.17;1.93;;;;;;;14.08;79.48;101177.53;5047834;28;20201;-82
2023/09/26 01:35:08;;;;;;;7.20;2.47;;;;;;;14.08;79.93;101161.78;5053495;28;20208;-81
2023/09/26 01:37:34;;;;;;;2.27;2.17;;;;;;;14.06;79.87;101160.09;5042315;28;20680;-83
2023/09/26 01:40:02;;;;;;;2.30;2.10;;;;;;;14.09;79.22;101175.75;5051458;28;20221;-81
2023/09/26 01:42:30;;;;;;;2.73;2.50;;;;;;;14.05;79.38;101180.25;5053465;28;20626;-81
2023/09/26 01:44:56;;;;;;;4.33;2.20;;;;;;;14.05;79.74;101168.84;5054205;28;20280;-81
2023/09/26 01:47:35;;;;;;;2.43;2.23;;;;;;;14.05;78.86;101182.88;5039218;28;20197;-81
2023/09/26 01:50:01;;;;;;;2.53;2.37;;;;;;;14.00;77.70;101208.34;5053889;28;20229;-81
2023/09/26 01:52:28;;;;;;;3.33;2.10;;;;;;;14.04;77.85;101212.63;5055751;28;20232;-82
2023/09/26 01:54:55;;;;;;;2.37;2.20;;;;;;;14.04;77.89;101225.75;5047928;28;20205;-81
2023/09/26 01:57:22;;;;;;;2.47;1.93;;;;;;;14.04;76.93;101230.13;5055363;28;20202;-81
2023/09/26 01:59:49;;;;;;;2.10;2.00;;;;;;;13.96;76.91;101243.41;5053112;28;20329;-81
2023/09/26 02:02:16;;;;;;;2.27;2.07;;;;;;;13.92;76.59;101254.03;5043573;28;20201;-80
2023/09/26 02:04:42;;;;;;;2.73;2.53;;;;;;;13.93;76.76;101256.59;5042011;28;20232;-81
2023/09/26 02:07:09;;;;;;;2.13;2.03;;;;;;;13.73;77.44;101256.97;5046131;28;20217;-81
2023/09/26 02:09:35;;;;;;;2.20;2.10;;;;;;;13.74;77.50;101244.75;5053690;28;20225;-81
2023/09/26 02:12:03;;;;;;;2.23;2.13;;;;;;;13.73;78.10;101225.50;5054827;28;20575;-80
2023/09/26 02:14:30;;;;;;;2.67;2.47;;;;;;;13.67;77.86;101226.47;5050675;28;20202;-81
2023/09/26 02:16:57;;;;;;;2.40;2.30;;;;;;;13.63;77.13;101244.94;5051623;28;20220;-81
2023/09/26 02:19:24;;;;;;;2.30;2.20;;;;;;;13.50;77.65;101241.69;5055080;28;20228;-81
2023/09/26 02:21:50;;;;;;;2.60;2.40;;;;;;;13.54;77.59;101239.84;5054319;28;20208;-81
2023/09/26 02:24:17;;;;;;;2.80;2.37;;;;;;;13.46;77.74;101227.75;5053921;28;20230;-80
2023/09/26 02:26:43;;;;;;;3.03;2.70;;;;;;;13.52;78.10;101229.41;5068498;28;20194;-81
2023/09/26 02:29:10;;;;;;;2.97;2.67;;;;;;;13.53;77.80;101218.00;5058024;28;20233;-81
2023/09/26 02:31:36;;;;;;;3.03;2.83;;;;;;;13.49;78.42;101211.94;5051018;28;20209;-81
2023/09/26 02:34:04;;;;;;;4.20;2.60;;;;;;;13.49;78.59;101205.84;5058909;28;20571;-81
2023/09/26 02:36:30;;;;;;;2.63;2.43;;;;;;;13.41;78.58;101197.25;5051520;28;20201;-81
2023/09/26 02:38:57;;;;;;;2.90;2.70;;;;;;;13.37;78.52;101187.72;5058257;28;20255;-81
2023/09/26 02:41:23;;;;;;;2.70;2.50;;;;;;;13.34;78.91;101186.03;5049651;28;20208;-79
2023/09/26 02:43:54;;;;;;;2.80;2.40;;;;;;;13.33;79.25;101176.41;5050847;28;20203;-81
2023/09/26 02:46:21;;;;;;;2.60;2.47;;;;;;;13.37;78.64;101182.47;5050299;28;20209;-81
2023/09/26 02:48:47;;;;;;;3.03;2.83;;;;;;;13.35;77.97;101187.72;5059553;28;20233;-81
2023/09/26 02:51:15;;;;;;;2.50;2.40;;;;;;;13.30;78.41;101195.69;5049155;28;20699;-82
2023/09/26 02:53:41;;;;;;;2.70;2.50;;;;;;;13.34;78.09;101200.88;5039271;28;20205;-81
2023/09/26 02:56:10;;;;;;;3.00;2.80;;;;;;;13.29;78.54;101196.56;5048581;28;20652;-81
2023/09/26 02:58:36;;;;;;;2.60;2.50;;;;;;;13.30;78.63;101206.19;5058299;28;20233;-83
2023/09/26 03:01:03;;;;;;;3.73;3.10;;;;;;;13.13;78.93;101199.47;5051230;28;20694;-81
2023/09/26 03:03:30;;;;;;;3.40;3.10;;;;;;;13.17;79.04;101188.03;5045884;28;20209;-81
2023/09/26 03:05:57;;;;;;;3.40;3.10;;;;;;;13.12;78.72;101185.47;5047146;28;20233;-81
2023/09/26 03:08:24;;;;;;;3.07;2.80;;;;;;;13.13;77.92;101202.94;5057934;28;20225;-81
2023/09/26 03:10:51;;;;;;;3.07;2.77;;;;;;;13.10;78.02;101205.63;5044730;28;20205;-81
2023/09/26 03:13:17;;;;;;;2.93;2.70;;;;;;;13.05;78.49;101204.84;5056494;28;20206;-81
2023/09/26 03:15:44;;;;;;;2.97;2.77;;;;;;;13.01;79.33;101180.44;5051910;28;20228;-81
2023/09/26 03:18:10;;;;;;;2.90;2.63;;;;;;;13.00;79.23;101168.25;5057548;28;20213;-82
2023/09/26 03:20:38;;;;;;;2.80;2.60;;;;;;;12.96;79.48;101169.16;5051492;28;20201;-81
2023/09/26 03:23:04;;;;;;;3.07;2.80;;;;;;;12.96;79.01;101170.91;5058390;28;20209;-81
2023/09/26 03:25:33;;;;;;;3.60;2.53;;;;;;;12.85;79.04;101171.97;5043036;28;20691;-81
2023/09/26 03:28:01;;;;;;;2.73;2.53;;;;;;;12.85;79.74;101161.50;5059170;28;20216;-81
2023/09/26 03:30:28;;;;;;;2.87;2.63;;;;;;;12.86;80.01;101155.38;5061990;28;20239;-79
2023/09/26 03:32:54;;;;;;;2.87;2.63;;;;;;;12.85;79.95;101155.41;5076928;28;20189;-79
2023/09/26 03:35:21;;;;;;;2.77;2.60;;;;;;;12.79;79.47;101164.22;5070780;28;20230;-79
2023/09/26 03:37:47;;;;;;;3.47;2.77;;;;;;;12.84;79.38;101156.28;5070843;28;20282;-79
2023/09/26 03:40:14;;;;;;;3.40;3.10;;;;;;;12.86;80.01;101150.13;5059947;28;20222;-81
2023/09/26 03:42:41;;;;;;;3.57;3.27;;;;;;;12.88;80.28;101145.72;5073617;28;20574;-81
2023/09/26 03:45:09;;;;;;;3.40;3.10;;;;;;;12.70;80.88;101138.16;5046046;28;20226;-83
2023/09/26 03:47:35;;;;;;;3.93;3.73;;;;;;;12.37;82.83;101110.75;5059093;28;20205;-82
2023/09/26 03:50:02;;;;;;;4.00;3.70;;;;;;;12.52;82.81;101077.31;5054427;28;20225;-82
2023/09/26 03:52:29;;;;;;;3.73;3.53;;;;;;;12.62;82.43;101069.31;5046689;28;20228;-82
2023/09/26 03:54:55;;;;;;;3.67;3.37;;;;;;;12.73;81.99;101085.72;5043145;28;20232;-80
2023/09/26 03:57:22;;;;;;;3.50;3.20;;;;;;;12.74;81.85;101083.97;5056364;28;20213;-82
2023/09/26 03:59:50;;;;;;;3.57;3.30;;;;;;;12.80;81.50;101089.09;5056667;28;20233;-81
2023/09/26 04:02:16;;;;;;;3.37;3.07;;;;;;;12.81;80.91;101101.31;5039214;28;20684;-82
2023/09/26 04:04:43;;;;;;;2.77;2.57;;;;;;;12.78;81.00;101106.59;5054197;28;20233;-81
2023/09/26 04:07:09;;;;;;;2.90;2.70;;;;;;;12.77;80.79;101103.13;5042053;28;20206;-82
2023/09/26 04:09:36;;;;;;;3.10;2.90;;;;;;;12.61;80.49;101106.91;5057862;28;20225;-81
2023/09/26 04:12:04;;;;;;;3.10;2.90;;;;;;;12.54;80.27;101113.13;5055752;28;20220;-82
2023/09/26 04:14:30;;;;;;;3.47;3.20;;;;;;;12.50;80.21;101114.91;5057951;28;20210;-82
2023/09/26 04:16:58;;;;;;;3.10;2.80;;;;;;;12.53;80.92;101104.41;5055604;28;20205;-81
2023/09/26 04:19:25;;;;;;;2.37;2.23;;;;;;;12.52;81.06;101093.03;5057427;28;20735;-80
2023/09/26 04:21:53;;;;;;;3.20;3.00;;;;;;;12.56;81.85;101079.91;5045755;28;20211;-82
2023/09/26 04:24:20;;;;;;;3.53;3.33;;;;;;;12.63;81.91;101074.53;5049378;28;20200;-82
2023/09/26 04:26:47;;;;;;;3.87;3.20;;;;;;;12.67;81.15;101081.47;5054094;28;20643;-82
2023/09/26 04:29:13;;;;;;;3.37;3.17;;;;;;;12.70;81.07;101083.16;5049224;28;20232;-81
2023/09/26 04:31:40;;;;;;;4.37;2.83;;;;;;;12.77;81.02;101084.78;5054833;28;20205;-82
2023/09/26 04:34:08;;;;;;;3.10;2.90;;;;;;;12.76;80.81;101088.28;5058042;28;20262;-81
2023/09/26 04:36:34;;;;;;;3.30;2.93;;;;;;;12.61;81.91;101072.84;5050939;28;20206;-81
2023/09/26 04:39:01;;;;;;;3.20;2.90;;;;;;;12.62;81.25;101069.31;5056266;28;20224;-82
2023/09/26 04:41:27;;;;;;;3.70;3.40;;;;;;;12.56;82.01;101059.81;5055631;28;20231;-81
2023/09/26 04:43:53;;;;;;;3.87;3.57;;;;;;;12.56;82.37;101051.97;5058475;28;20217;-82
2023/09/26 04:46:20;;;;;;;3.77;3.40;;;;;;;12.51;82.61;101048.56;5056286;28;20232;-82
2023/09/26 04:48:46;;;;;;;3.77;3.47;;;;;;;12.47;82.38;101033.81;5052370;28;20252;-81
2023/09/26 04:51:15;;;;;;;3.20;3.00;;;;;;;12.50;82.45;101036.34;5052731;28;20209;-81
2023/09/26 04:53:42;;;;;;;3.53;3.23;;;;;;;12.55;82.24;101037.16;5038152;28;20212;-81
2023/09/26 04:56:08;;;;;;;3.33;3.03;;;;;;;12.58;82.06;101041.47;5052338;28;20259;-81
2023/09/26 04:58:35;;;;;;;3.43;3.17;;;;;;;12.51;81.96;101038.94;5057849;28;20580;-81
2023/09/26 05:01:13;;;;;;;4.27;3.30;;;;;;;12.47;81.32;101041.66;5055925;28;20703;-82
2023/09/26 05:03:40;;;;;;;4.60;3.23;;;;;;;12.46;81.04;101063.50;5048781;28;20586;-82
2023/09/26 05:06:07;;;;;;;3.80;3.50;;;;;;;12.35;80.66;101079.38;5056385;28;20221;-81
2023/09/26 05:08:35;;;;;;;3.63;3.33;;;;;;;12.25;80.66;101081.28;5056255;28;20224;-83
2023/09/26 05:11:02;;;;;;;3.53;3.30;;;;;;;12.29;80.83;101074.25;5055337;28;20201;-84
2023/09/26 05:13:28;;;;;;;3.60;3.30;;;;;;;12.30;80.87;101070.72;5056406;28;20219;-84
2023/09/26 05:15:55;;;;;;;3.50;3.20;;;;;;;12.31;80.94;101082.94;5055825;28;20209;-83
2023/09/26 05:18:46;;;;;;;6.67;4.30;;;;;;;12.32;81.12;101084.66;5046627;28;20209;-84
2023/09/26 05:21:12;;;;;;;3.37;3.17;;;;;;;12.31;81.15;101081.19;5023506;28;20699;-84
2023/09/26 05:23:40;;;;;;;3.60;3.40;;;;;;;12.32;81.14;101082.03;5029213;28;20209;-84
2023/09/26 05:26:07;;;;;;;3.63;3.33;;;;;;;12.24;82.06;101073.44;5036526;28;20229;-84
2023/09/26 05:28:33;;;;;;;3.40;3.10;;;;;;;12.16;82.46;101070.94;5035365;28;20243;-83
2023/09/26 05:31:00;;;;;;;3.30;3.10;;;;;;;12.11;82.00;101071.03;5034397;28;20612;-82
2023/09/26 05:33:26;;;;;;;3.70;3.40;;;;;;;12.19;81.90;101076.13;5034357;28;20583;-82
2023/09/26 05:35:53;;;;;;;3.53;3.33;;;;;;;12.14;81.47;101077.09;5033384;28;20688;-82
2023/09/26 05:38:20;;;;;;;3.50;3.30;;;;;;;12.15;81.34;101079.69;5034525;28;20756;-82
2023/09/26 05:40:48;;;;;;;3.10;2.67;;;;;;;12.10;81.45;101079.75;5035224;28;20208;-82
2023/09/26 05:43:14;;;;;;;3.33;3.00;;;;;;;12.14;82.46;101071.84;5034914;28;20572;-83
2023/09/26 05:45:40;;;;;;;2.93;2.73;;;;;;;12.20;82.43;101062.16;5034353;28;20226;-82
2023/09/26 05:48:07;;;;;;;4.73;4.17;;;;;;;11.94;85.52;101035.53;5034655;28;20208;-82
2023/09/26 05:50:33;;;;;;;4.30;4.10;;;;;;;11.79;86.70;100989.50;5034307;28;20237;-82
2023/09/26 05:53:00;;;;;;;6.80;3.97;;;;;;;11.99;86.76;100963.06;5035738;28;20220;-82
2023/09/26 05:55:27;;;;;;;4.40;4.10;;;;;;;12.06;86.11;100962.06;5034260;28;20637;-83
2023/09/26 05:57:54;;;;;;;3.77;3.47;;;;;;;12.11;85.37;100971.56;5046703;28;20216;-82
2023/09/26 06:00:21;;;;;;;4.30;3.93;;;;;;;12.09;84.93;100985.56;5052550;28;20236;-83
2023/09/26 06:02:47;;;;;;;3.13;2.90;;;;;;;12.19;84.35;100994.13;5047426;28;20252;-84
2023/09/26 06:05:13;;;;;;;3.63;3.43;;;;;;;12.25;83.82;100999.25;5046186;28;20232;-83
2023/09/26 06:07:39;;;;;;;4.60;4.20;;;;;;;12.27;83.87;101007.97;5046671;28;20202;-83
2023/09/26 06:10:07;;;;;;;3.57;3.37;;;;;;;12.27;83.92;101014.06;5045735;28;20349;-84
2023/09/26 06:12:34;;;;;;;4.07;3.77;;;;;;;12.27;84.45;101014.06;5047407;28;20202;-84
2023/09/26 06:15:03;;;;;;;4.23;3.93;;;;;;;12.27;84.66;101006.22;5047759;28;20633;-84
2023/09/26 06:17:30;;;;;;;4.40;4.00;;;;;;;12.30;84.32;101005.28;5047384;28;20218;-83
2023/09/26 06:19:56;;;;;;;3.87;3.67;;;;;;;12.28;84.22;101018.38;5044862;28;20236;-82
2023/09/26 06:22:22;;;;;;;4.43;4.10;;;;;;;12.26;84.79;101007.09;5046241;28;20208;-82
2023/09/26 06:24:49;;;;;;;4.30;4.10;;;;;;;12.28;84.44;101010.53;5045216;28;20209;-85
2023/09/26 06:27:15;;;;;;;4.67;4.20;;;;;;;12.35;83.85;101010.44;5043373;28;20240;-85
2023/09/26 06:29:42;;;;;;;4.80;4.37;;;;;;;12.42;84.15;101022.53;5031704;28;20232;-84
2023/09/26 06:32:10;;;;;;;3.97;3.73;;;;;;;12.50;83.43;101025.88;5039074;28;20207;-83
2023/09/26 06:34:39;;;;;;;5.17;4.07;;;;;;;12.55;83.22;101037.16;5038288;28;20237;-85
2023/09/26 06:37:05;;;;;;;5.33;3.30;;;;;;;12.57;83.45;101042.38;5039546;28;20588;-85
2023/09/26 06:39:32;;;;;;;3.60;3.30;;;;;;;12.61;83.93;101041.44;5040198;28;20672;-88
2023/09/26 06:41:59;;;;;;;3.53;3.33;;;;;;;12.57;84.42;101039.75;5041789;28;20241;-86
2023/09/26 06:44:25;;;;;;;3.80;3.50;;;;;;;12.61;84.52;101023.09;5041235;28;20218;-85
2023/09/26 06:46:52;;;;;;;3.37;3.17;;;;;;;12.62;85.08;101016.94;5043846;28;20580;-85
2023/09/26 06:49:20;;;;;;;4.70;4.40;;;;;;;12.63;85.38;101002.97;5043590;28;20234;-85
2023/09/26 06:51:47;;;;;;;7.43;4.07;;;;;;;12.70;85.80;100999.31;5045053;28;20189;-84
2023/09/26 06:54:13;;;;;;;4.13;3.83;;;;;;;12.74;85.45;100993.13;5056722;28;20217;-82
2023/09/26 06:56:39;;;;;;;4.07;3.67;;;;;;;12.76;85.73;100995.72;5056339;28;20215;-82
2023/09/26 06:59:06;;;;;;;5.23;4.33;;;;;;;12.78;86.55;100993.94;5056090;28;20238;-81
2023/09/26 07:01:33;;;;;;;4.03;3.73;;;;;;;12.76;86.84;100987.88;5056886;28;20217;-81
2023/09/26 07:03:59;;;;;;;4.43;4.13;;;;;;;12.94;92.34;100898.41;5056378;28;20213;-80
2023/09/26 07:06:27;;;;;;;3.90;3.60;;;;;;;13.26;95.17;100823.44;5060552;28;20214;-84
2023/09/26 07:08:55;;;;;;;4.17;3.83;;;;;;;13.47;95.40;100809.84;5052836;28;20225;-85
2023/09/26 07:11:22;;;;;;;4.17;3.87;;;;;;;13.68;95.68;100804.97;5043654;28;20210;-84
2023/09/26 07:13:49;;;;;;;3.83;3.30;;;;;;;13.85;94.52;100813.22;5025034;28;20333;-85
2023/09/26 07:16:16;;;;;;;4.23;3.60;;;;;;;14.02;93.61;100830.31;5041618;28;20204;-87
2023/09/26 07:18:43;;;;;;;4.00;3.50;;;;;;;14.18;93.67;100828.13;5041187;28;20226;-84
2023/09/26 07:21:09;;;;;;;3.90;3.60;;;;;;;14.32;92.35;100843.50;5038259;28;20206;-83
2023/09/26 07:23:38;;;;;;;3.80;3.53;;;;;;;14.46;91.48;100865.84;5048377;28;20225;-83
2023/09/26 07:26:09;;;;;;;4.73;4.30;;;;;;;14.58;91.04;100885.69;5040551;28;20230;-84
2023/09/26 07:28:36;;;;;;;5.13;4.73;;;;;;;14.43;86.95;100935.97;5047159;28;20222;-84
2023/09/26 07:31:04;;;;;;;4.90;4.57;;;;;;;14.57;88.51;100947.03;5061127;28;20210;-84
2023/09/26 07:33:30;;;;;;;6.23;5.47;;;;;;;14.65;88.66;100947.66;5059804;28;20208;-82
2023/09/26 07:35:57;;;;;;;5.00;4.20;;;;;;;14.69;88.17;100953.72;5047574;28;20271;-81
2023/09/26 07:38:23;;;;;;;5.70;5.20;;;;;;;14.70;88.07;100969.41;5052800;28;20205;-82
2023/09/26 07:40:51;;;;;;;5.60;5.13;;;;;;;14.75;88.42;100953.53;5066095;28;20209;-84
2023/09/26 07:43:17;;;;;;;5.27;4.80;;;;;;;14.86;89.41;100948.81;5066167;28;20206;-84
2023/09/26 07:45:44;;;;;;;4.90;4.47;;;;;;;15.05;90.09;100935.16;5069215;28;20233;-81
2023/09/26 07:48:10;;;;;;;4.30;3.90;;;;;;;15.15;89.71;100938.38;5062194;28;20228;-82
2023/09/26 07:50:37;;;;;;;3.70;3.33;;;;;;;15.24;88.92;100940.72;5060885;28;20663;-84
2023/09/26 07:53:03;;;;;;;3.90;3.50;;;;;;;15.07;86.54;100999.06;5062959;28;20210;-85
2023/09/26 07:55:30;;;;;;;4.60;4.30;;;;;;;15.14;88.11;100976.94;5062294;28;20210;-84
2023/09/26 07:57:57;;;;;;;3.70;3.37;;;;;;;15.23;89.33;100960.03;5063216;28;20213;-84
2023/09/26 08:00:24;;;;;;;3.70;3.40;;;;;;;15.02;88.11;100978.16;5059254;28;20223;-84
2023/09/26 08:02:51;;;;;;;5.67;5.20;;;;;;;14.89;89.13;100969.78;5043638;28;20260;-84
2023/09/26 08:05:17;;;;;;;3.77;3.57;;;;;;;14.75;90.26;100943.03;5056874;28;20205;-84
2023/09/26 08:07:44;;;;;;;4.83;4.50;;;;;;;14.73;91.97;100915.03;5058620;28;20236;-84
2023/09/26 08:10:10;;;;;;;5.30;4.70;;;;;;;14.65;93.54;100889.00;5059437;28;20234;-82
2023/09/26 08:12:37;;;;;;;5.40;4.90;;;;;;;14.67;95.05;100853.03;5055827;28;20206;-83
2023/09/26 08:15:07;;;;;;;5.90;5.50;;;;;;;14.81;96.12;100835.09;5058617;28;20210;-84
2023/09/26 08:17:34;;;;;;;6.47;5.97;;;;;;;15.02;95.96;100823.03;5059556;28;20308;-83
2023/09/26 08:20:01;;;;;;;6.10;5.63;;;;;;;15.16;95.42;100824.38;5059648;28;20252;-84
2023/09/26 08:22:27;;;;;;;5.90;5.50;;;;;;;15.31;93.99;100850.19;5057566;28;20202;-85
2023/09/26 08:24:54;;;;;;;6.50;5.90;;;;;;;15.40;93.65;100857.81;5058194;28;20308;-86
2023/09/26 08:27:21;;;;;;;5.83;5.33;;;;;;;15.53;92.87;100873.19;5063704;28;20237;-85
2023/09/26 08:29:47;;;;;;;6.10;5.70;;;;;;;15.57;92.67;100875.66;5062122;28;20236;-84
2023/09/26 08:32:15;;;;;;;6.03;5.53;;;;;;;15.66;90.90;100895.56;5058523;28;20203;-85
2023/09/26 08:34:42;;;;;;;6.07;5.47;;;;;;;15.81;90.14;100928.44;5064340;28;20661;-84
2023/09/26 08:37:10;;;;;;;6.53;5.93;;;;;;;15.86;90.10;100931.78;5064735;28;20210;-85
2023/09/26 08:39:36;;;;;;;9.10;5.53;;;;;;;15.94;89.76;100949.97;5062455;28;20724;-83
2023/09/26 08:42:04;;;;;;;5.73;5.40;;;;;;;16.03;88.45;100966.31;5062601;28;20221;-84
2023/09/26 08:44:30;;;;;;;6.40;5.03;;;;;;;16.14;88.00;100975.66;5054426;28;20247;-83
2023/09/26 08:46:58;;;;;;;5.73;5.33;;;;;;;16.27;88.63;100972.53;5053273;28;20230;-85
2023/09/26 08:49:26;;;;;;;5.70;5.30;;;;;;;16.37;87.88;100988.91;5059726;28;20237;-84
2023/09/26 08:51:52;;;;;;;5.33;5.00;;;;;;;16.52;88.02;100986.66;5047689;28;20620;-85
2023/09/26 08:54:19;;;;;;;5.10;4.80;;;;;;;16.70;86.88;101000.94;5062403;28;20216;-84
2023/09/26 08:56:46;;;;;;;4.73;4.43;;;;;;;16.86;86.58;101005.63;5055600;28;20205;-85
2023/09/26 08:59:14;;;;;;;4.67;4.27;;;;;;;17.00;85.80;101018.31;5061366;28;20235;-85
2023/09/26 09:01:41;;;;;;;4.40;4.10;;;;;;;17.16;85.06;101042.38;5060575;28;20202;-85
2023/09/26 09:04:09;;;;;;;4.50;3.90;;;;;;;17.18;85.96;101037.03;5060650;28;20213;-84
2023/09/26 09:06:37;;;;;;;9.80;5.10;;;;;;;17.28;85.93;101041.06;5058004;28;20258;-86
2023/09/26 09:09:09;;;;;;;4.73;4.43;;;;;;;17.38;84.16;101044.22;5060262;28;20225;-86
2023/09/26 09:11:35;;;;;;;7.60;3.90;;;;;;;17.48;83.39;101071.97;5052596;28;20228;-85
2023/09/26 09:14:02;;;;;;;3.80;3.50;;;;;;;17.66;81.63;101102.13;5055024;28;20589;-85
2023/09/26 09:16:28;;;;;;;3.23;3.03;;;;;;;17.72;80.64;101137.97;5063257;28;20554;-86
2023/09/26 09:18:58;;;;;;;4.30;3.80;;;;;;;17.83;81.62;101135.81;5056220;28;20228;-83
2023/09/26 09:21:27;;;;;;;4.27;2.83;;;;;;;17.79;83.91;101091.94;5064777;28;20582;-85
2023/09/26 09:23:58;;;;;;;3.33;3.13;;;;;;;17.82;81.11;101102.41;5063093;28;20269;-87
2023/09/26 09:26:28;;;;;;;3.33;2.77;;;;;;;17.95;78.02;101171.50;5062929;28;20227;-87
2023/09/26 09:28:58;;;;;;;3.17;2.97;;;;;;;17.99;82.50;101160.72;5062945;28;20258;-84
2023/09/26 09:31:27;;;;;;;3.67;3.33;;;;;;;17.89;84.31;101069.56;5067550;28;20207;-86
2023/09/26 09:33:55;;;;;;;3.37;2.57;;;;;;;18.10;72.73;101229.03;5061200;28;20218;-86
2023/09/26 09:36:22;;;;;;;2.73;2.53;;;;;;;18.25;73.88;101298.94;5050989;28;20243;-85
2023/09/26 09:38:49;;;;;;;4.30;2.77;;;;;;;18.46;72.72;101347.50;5062445;28;20223;-85
2023/09/26 09:41:17;;;;;;;2.53;2.33;;;;;;;18.40;75.57;101306.31;5064604;28;20659;-86
2023/09/26 09:43:44;;;;;;;3.00;2.80;;;;;;;18.42;75.66;101324.75;5052541;28;20199;-86
2023/09/26 09:46:12;;;;;;;2.67;2.47;;;;;;;18.54;72.41;101357.81;5060409;28;20347;-86
2023/09/26 09:48:43;;;;;;;2.30;2.20;;;;;;;18.65;70.53;101398.81;5060542;28;20223;-84
2023/09/26 09:51:13;;;;;;;2.83;2.17;;;;;;;18.60;68.77;101381.38;5059586;28;20197;-86
2023/09/26 09:53:42;;;;;;;2.50;2.30;;;;;;;18.71;69.25;101465.59;5062573;28;20242;-84
2023/09/26 09:56:12;;;;;;;2.83;2.63;;;;;;;18.89;72.31;101482.59;5060537;28;20229;-86
2023/09/26 09:58:42;;;;;;;2.23;2.13;;;;;;;18.93;69.52;101479.81;5054318;28;20222;-83
2023/09/26 10:01:09;;;;;;;2.77;2.57;;;;;;;18.90;67.15;101494.94;5047796;28;20275;-85
2023/09/26 10:03:35;;;;;;;2.67;2.53;;;;;;;19.09;70.34;101485.38;5057558;28;20238;-86
2023/09/26 10:06:03;;;;;;;2.40;2.20;;;;;;;18.96;70.24;101396.78;5037968;28;20198;-85
2023/09/26 10:08:31;;;;;;;2.07;1.97;;;;;;;19.03;68.46;101482.97;5057230;28;20244;-86
2023/09/26 10:10:59;;;;;;;2.60;2.40;;;;;;;19.04;72.51;101463.50;5059455;28;20198;-84
2023/09/26 10:13:25;;;;;;;2.93;2.60;;;;;;;19.00;69.60;101446.88;5052014;28;20204;-86
2023/09/26 10:16:14;;;;;;;3.67;2.13;;;;;;;19.25;65.98;101518.28;5060666;28;20218;-86
2023/09/26 10:18:42;;;;;;;2.33;2.10;;;;;;;19.53;66.13;101559.59;5061891;28;20668;-85
2023/09/26 10:21:22;;;;;;;2.20;2.10;;;;;;;19.57;69.27;101518.81;5061763;28;20205;-86
2023/09/26 10:24:22;;;;;;;2.50;2.17;;;;;;;19.52;67.06;101496.94;5055207;28;20201;-86
2023/09/26 10:26:50;;;;;;;2.10;1.90;;;;;;;19.65;63.85;101584.75;5059502;28;20234;-85
2023/09/26 10:29:23;;;;;;;2.27;2.07;;;;;;;19.81;66.51;101547.97;5054962;28;20218;-86
2023/09/26 10:31:54;;;;;;;2.00;1.90;;;;;;;19.86;66.77;101571.63;5060693;28;20251;-86
2023/09/26 10:34:23;;;;;;;5.30;2.17;;;;;;;19.81;63.59;101585.91;5060341;28;20217;-86
2023/09/26 10:36:50;;;;;;;1.80;1.70;;;;;;;19.97;63.61;101620.63;5061114;28;20200;-87
2023/09/26 10:39:16;;;;;;;2.17;2.00;;;;;;;20.04;63.40;101637.16;5057305;28;20222;-87
2023/09/26 10:41:43;;;;;;;2.17;1.97;;;;;;;20.11;62.04;101667.78;5062448;28;20209;-86
2023/09/26 10:44:09;;;;;;;2.37;2.07;;;;;;;20.15;62.02;101690.59;5063288;28;20687;-86
2023/09/26 10:46:35;;;;;;;2.37;2.10;;;;;;;20.22;62.45;101688.59;5065557;28;20197;-85
2023/09/26 10:49:03;;;;;;;2.20;2.00;;;;;;;20.38;62.47;101684.41;5064549;28;20229;-86
2023/09/26 10:51:30;;;;;;;2.23;2.07;;;;;;;20.49;64.04;101646.81;5064694;28;20201;-86
2023/09/26 10:53:58;;;;;;;1.97;1.87;;;;;;;20.49;63.86;101630.91;5064824;28;20266;-86
2023/09/26 10:56:24;;;;;;;2.00;1.90;;;;;;;20.47;61.60;101672.53;5062647;28;20197;-87
2023/09/26 10:58:54;;;;;;;2.87;1.97;;;;;;;20.53;62.55;101652.88;5055622;28;20229;-87
2023/09/26 11:01:20;;;;;;;2.27;1.83;;;;;;;20.61;63.90;101656.09;5064006;28;20210;-85
2023/09/26 11:03:47;;;;;;;1.90;1.80;;;;;;;20.74;61.76;101657.31;5053637;28;20285;-85
2023/09/26 11:06:16;;;;;;;2.43;1.90;;;;;;;20.92;61.79;101660.13;5052396;28;20690;-86
2023/09/26 11:08:43;;;;;;;2.00;1.77;;;;;;;21.01;60.56;101649.13;5052278;28;20232;-86
2023/09/26 11:11:10;;;;;;;2.20;2.00;;;;;;;21.21;63.65;101658.88;5063147;28;20209;-86
2023/09/26 11:13:37;;;;;;;2.20;2.10;;;;;;;21.26;61.08;101643.59;5045767;28;20697;-85
2023/09/26 11:16:04;;;;;;;1.87;1.77;;;;;;;21.36;58.96;101698.00;5059987;28;20216;-85
2023/09/26 11:18:30;;;;;;;1.80;1.70;;;;;;;21.51;60.90;101679.72;5054431;28;20225;-85
2023/09/26 11:20:59;;;;;;;1.90;1.80;;;;;;;21.72;60.09;101694.66;5054668;28;20208;-85
2023/09/26 11:23:39;;;;;;;1.87;1.77;;;;;;;22.15;61.90;101654.59;5062778;28;20202;-86
2023/09/26 11:26:06;;;;;;;1.73;1.60;;;;;;;22.87;57.95;101704.28;5059009;28;20209;-86